createdAt,value
2022-09-25T00:00:08.122Z,3.25
2022-09-25T00:02:13.687Z,3.27
2022-09-25T00:04:19.427Z,3.25
2022-09-25T00:06:24.919Z,3.24
2022-09-25T00:08:30.315Z,3.22
2022-09-25T00:10:35.643Z,3.18
2022-09-25T00:12:41.480Z,3.14
2022-09-25T00:14:53.066Z,3.08
2022-09-25T00:16:59.046Z,3.04
2022-09-25T00:19:04.995Z,3.03
2022-09-25T00:21:10.303Z,3.03
2022-09-25T00:23:15.745Z,3.03
2022-09-25T00:25:21.582Z,3.03
2022-09-25T00:27:26.789Z,3
2022-09-25T00:29:32.011Z,2.97
2022-09-25T00:31:37.180Z,2.95
2022-09-25T00:36:02.385Z,2.94
2022-09-25T00:38:08.703Z,2.92
2022-09-25T00:40:14.135Z,2.92
2022-09-25T00:42:19.679Z,2.9
2022-09-25T00:44:25.112Z,2.87
2022-09-25T00:46:30.546Z,2.88
2022-09-25T00:48:36.206Z,2.91
2022-09-25T00:50:41.456Z,2.89
2022-09-25T00:52:47.202Z,2.88
2022-09-25T00:54:52.338Z,2.84
2022-09-25T00:56:57.605Z,2.82
2022-09-25T00:59:02.892Z,2.8
2022-09-25T01:01:08.390Z,2.78
2022-09-25T01:03:14.334Z,2.76
2022-09-25T01:05:19.422Z,2.77
2022-09-25T01:07:25.876Z,2.77
2022-09-25T01:09:31.399Z,2.78
2022-09-25T01:11:39.370Z,2.82
2022-09-25T01:13:44.599Z,2.87
2022-09-25T01:15:49.863Z,2.91
2022-09-25T01:17:55.537Z,2.93
2022-09-25T01:20:01.008Z,2.95
2022-09-25T01:22:09.630Z,2.95
2022-09-25T01:24:14.740Z,2.94
2022-09-25T01:26:20.087Z,2.92
2022-09-25T01:28:25.419Z,2.9
2022-09-25T01:30:33.069Z,2.87
2022-09-25T01:32:38.959Z,2.82
2022-09-25T01:34:46.716Z,2.77
2022-09-25T01:36:51.922Z,2.75
2022-09-25T01:38:57.256Z,2.71
2022-09-25T01:41:02.421Z,2.67
2022-09-25T01:43:08.121Z,2.62
2022-09-25T01:45:13.585Z,2.6
2022-09-25T01:47:19.219Z,2.57
2022-09-25T01:49:24.510Z,2.56
2022-09-25T01:51:29.670Z,2.52
2022-09-25T01:53:35.126Z,2.51
2022-09-25T01:58:01.096Z,2.56
2022-09-25T02:00:06.648Z,2.52
2022-09-25T02:02:11.942Z,2.52
2022-09-25T02:04:17.629Z,2.51
2022-09-25T02:06:22.877Z,2.49
2022-09-25T02:08:29.237Z,2.47
2022-09-25T02:10:35.983Z,2.44
2022-09-25T02:12:41.059Z,2.42
2022-09-25T02:14:46.490Z,2.42
2022-09-25T02:16:51.761Z,2.41
2022-09-25T02:18:57.567Z,2.38
2022-09-25T02:21:05.133Z,2.35
2022-09-25T02:23:10.644Z,2.31
2022-09-25T02:25:16.059Z,2.3
2022-09-25T02:27:21.282Z,2.29
2022-09-25T02:29:26.463Z,2.28
2022-09-25T02:31:32.055Z,2.26
2022-09-25T02:33:38.559Z,2.26
2022-09-25T02:35:43.896Z,2.27
2022-09-25T02:37:49.101Z,2.24
2022-09-25T02:39:54.327Z,2.17
2022-09-25T02:41:59.751Z,2.16
2022-09-25T02:44:04.869Z,2.12
2022-09-25T02:46:12.373Z,2.14
2022-09-25T02:48:18.069Z,2.17
2022-09-25T02:50:23.228Z,2.14
2022-09-25T02:52:28.832Z,2.12
2022-09-25T02:54:34.036Z,2.13
2022-09-25T02:56:39.532Z,2.12
2022-09-25T02:58:44.915Z,2.09
2022-09-25T03:00:50.206Z,2.06
2022-09-25T03:02:55.765Z,2.04
2022-09-25T03:05:01.663Z,2.01
2022-09-25T03:07:07.048Z,1.98
2022-09-25T03:09:13.733Z,1.96
2022-09-25T03:11:19.104Z,1.95
2022-09-25T03:13:24.261Z,1.95
2022-09-25T03:15:29.623Z,1.94
2022-09-25T03:17:34.751Z,1.94
2022-09-25T03:19:40.087Z,1.91
2022-09-25T03:21:45.232Z,1.9
2022-09-25T03:23:50.729Z,1.91
2022-09-25T03:25:55.902Z,1.9
2022-09-25T03:28:01.037Z,1.89
2022-09-25T03:30:06.284Z,1.89
2022-09-25T03:32:11.511Z,1.9
2022-09-25T03:34:16.644Z,1.88
2022-09-25T03:36:22.047Z,1.86
2022-09-25T03:38:27.358Z,1.85
2022-09-25T03:40:32.895Z,1.83
2022-09-25T03:42:39.280Z,1.81
2022-09-25T03:44:44.505Z,1.81
2022-09-25T03:46:50.174Z,1.78
2022-09-25T03:48:55.333Z,1.78
2022-09-25T03:51:00.751Z,1.75
2022-09-25T03:53:06.107Z,1.72
2022-09-25T03:55:11.360Z,1.7
2022-09-25T03:57:16.854Z,1.69
2022-09-25T03:59:21.875Z,1.67
2022-09-25T04:01:27.749Z,1.67
2022-09-25T04:03:33.557Z,1.68
2022-09-25T04:05:39.103Z,1.66
2022-09-25T04:07:44.269Z,1.64
2022-09-25T04:09:49.431Z,1.63
2022-09-25T04:11:55.336Z,1.59
2022-09-25T04:14:01.602Z,1.54
2022-09-25T04:16:07.357Z,1.53
2022-09-25T04:18:13.152Z,1.54
2022-09-25T04:20:18.627Z,1.59
2022-09-25T04:22:24.077Z,1.61
2022-09-25T04:24:29.251Z,1.64
2022-09-25T04:26:34.702Z,1.67
2022-09-25T04:28:40.021Z,1.64
2022-09-25T04:30:45.436Z,1.66
2022-09-25T04:32:50.865Z,1.69
2022-09-25T04:34:56.196Z,1.71
2022-09-25T04:37:01.038Z,1.74
2022-09-25T04:39:06.469Z,1.77
2022-09-25T04:41:12.198Z,1.8
2022-09-25T04:43:17.821Z,1.83
2022-09-25T04:45:23.452Z,1.87
2022-09-25T04:47:28.787Z,1.86
2022-09-25T04:49:34.192Z,1.91
2022-09-25T04:51:39.762Z,1.97
2022-09-25T04:53:44.997Z,2.01
2022-09-25T04:55:50.296Z,2.07
2022-09-25T04:57:59.006Z,2.09
2022-09-25T05:00:05.032Z,2.13
2022-09-25T05:02:10.894Z,2.18
2022-09-25T05:04:16.754Z,2.21
2022-09-25T05:06:22.267Z,2.26
2022-09-25T05:08:28.002Z,2.28
2022-09-25T05:10:33.385Z,2.28
2022-09-25T05:12:38.683Z,2.27
2022-09-25T05:14:44.004Z,2.28
2022-09-25T05:16:49.478Z,2.32
2022-09-25T05:18:55.456Z,2.37
2022-09-25T05:21:00.769Z,2.43
2022-09-25T05:23:05.975Z,2.52
2022-09-25T05:25:11.467Z,2.62
2022-09-25T05:27:17.152Z,2.73
2022-09-25T05:29:22.418Z,2.79
2022-09-25T05:31:28.057Z,2.87
2022-09-25T05:33:34.419Z,2.99
2022-09-25T05:35:40.848Z,3.15
2022-09-25T05:37:46.261Z,3.29
2022-09-25T05:39:51.872Z,3.39
2022-09-25T05:41:57.375Z,3.47
2022-09-25T05:44:03.508Z,3.61
2022-09-25T05:46:09.421Z,3.72
2022-09-25T05:48:15.460Z,3.86
2022-09-25T05:50:20.853Z,4.02
2022-09-25T05:52:26.395Z,4.17
2022-09-25T05:54:32.224Z,4.3
2022-09-25T05:56:38.326Z,4.39
2022-09-25T05:58:44.426Z,4.52
2022-09-25T06:00:50.821Z,4.66
2022-09-25T06:02:56.884Z,4.8
2022-09-25T06:05:03.788Z,4.9
2022-09-25T06:07:09.834Z,4.96
2022-09-25T06:09:15.775Z,5.03
2022-09-25T06:11:21.889Z,5.09
2022-09-25T06:13:28.088Z,5.09
2022-09-25T06:15:34.571Z,5.14
2022-09-25T06:17:41.534Z,5.19
2022-09-25T06:19:47.700Z,5.36
2022-09-25T06:21:53.696Z,5.6
2022-09-25T06:23:59.706Z,5.85
2022-09-25T06:26:06.186Z,6.03
2022-09-25T06:28:12.368Z,6.23
2022-09-25T06:30:18.242Z,6.43
2022-09-25T06:32:25.504Z,6.67
2022-09-25T06:34:31.493Z,6.83
2022-09-25T06:36:38.568Z,7.05
2022-09-25T06:38:44.965Z,7.22
2022-09-25T06:40:51.383Z,7.43
2022-09-25T06:43:05.151Z,7.71
2022-09-25T06:45:13.598Z,7.89
2022-09-25T06:47:23.557Z,8.04
2022-09-25T06:49:32.659Z,8.33
2022-09-25T06:51:39.280Z,8.53
2022-09-25T06:53:45.576Z,8.72
2022-09-25T06:55:51.643Z,8.81
2022-09-25T06:57:57.789Z,8.97
2022-09-25T07:00:04.014Z,9.11
2022-09-25T07:02:10.714Z,9.01
2022-09-25T07:04:19.120Z,9.2
2022-09-25T07:06:28.590Z,9.36
2022-09-25T07:08:35.375Z,9.54
2022-09-25T07:10:45.646Z,9.66
2022-09-25T07:12:52.200Z,9.85
2022-09-25T07:15:01.626Z,9.81
2022-09-25T07:17:09.584Z,9.86
2022-09-25T07:19:15.949Z,9.88
2022-09-25T07:21:36.054Z,10.04
2022-09-25T07:23:42.676Z,10.02
2022-09-25T07:25:51.900Z,9.71
2022-09-25T07:27:59.577Z,9.67
2022-09-25T07:30:12.692Z,9.75
2022-09-25T07:32:19.697Z,9.9
2022-09-25T07:34:26.327Z,10.06
2022-09-25T07:36:36.749Z,10.18
2022-09-25T07:38:46.872Z,9.99
2022-09-25T07:40:53.430Z,10.19
2022-09-25T07:43:00.521Z,10.42
2022-09-25T07:45:07.178Z,10.32
2022-09-25T07:47:15.239Z,10.55
2022-09-25T07:49:22.358Z,10.84
2022-09-25T07:51:28.677Z,10.93
2022-09-25T07:53:36.629Z,11.09
2022-09-25T07:55:43.444Z,11.17
2022-09-25T07:57:49.706Z,11.4
2022-09-25T07:59:56.097Z,11.44
2022-09-25T08:02:02.968Z,11.75
2022-09-25T08:04:16.529Z,11.83
2022-09-25T08:06:28.941Z,12.14
2022-09-25T08:08:35.998Z,12.18
2022-09-25T08:10:42.582Z,12.4
2022-09-25T08:12:50.180Z,12.43
2022-09-25T08:14:58.593Z,12.76
2022-09-25T08:17:05.334Z,12.92
2022-09-25T08:19:12.108Z,12.76
2022-09-25T08:21:19.109Z,12.6
2022-09-25T08:23:26.141Z,12.58
2022-09-25T08:25:33.248Z,12.84
2022-09-25T08:27:39.964Z,13.03
2022-09-25T08:29:47.089Z,13.12
2022-09-25T08:31:53.846Z,13.42
2022-09-25T08:34:21.331Z,13.81
2022-09-25T08:36:50.572Z,14.2
2022-09-25T08:38:57.587Z,14.16
2022-09-25T08:41:07.162Z,13.99
2022-09-25T08:43:25.614Z,14.16
2022-09-25T08:46:03.515Z,13.96
2022-09-25T08:51:12.536Z,14.58
2022-09-25T08:55:39.585Z,15.26
2022-09-25T08:57:49.221Z,15.09
2022-09-25T09:00:25.135Z,15.11
2022-09-25T09:02:47.876Z,15.03
2022-09-25T09:05:29.483Z,14.99
2022-09-25T09:07:48.313Z,15.64
2022-09-25T09:10:16.031Z,15.87
2022-09-25T09:12:43.462Z,15.29
2022-09-25T09:15:18.226Z,14.68
2022-09-25T09:17:47.717Z,14.18
2022-09-25T09:20:08.103Z,14.46
2022-09-25T09:22:39.359Z,15.01
2022-09-25T09:24:55.337Z,15.28
2022-09-25T09:27:16.632Z,15.21
2022-09-25T09:29:23.226Z,15.28
2022-09-25T09:31:29.846Z,15.66
2022-09-25T09:33:36.955Z,15.83
2022-09-25T09:35:43.828Z,15.99
2022-09-25T09:38:32.455Z,17.19
2022-09-25T09:41:11.736Z,18.53
2022-09-25T10:00:02.157Z,17.68
2022-09-25T10:03:20.804Z,18.18
2022-09-25T10:12:13.434Z,19.63
2022-09-25T10:14:32.714Z,20.2
2022-09-25T10:23:43.610Z,24.21
2022-09-25T10:30:09.970Z,22.43
2022-09-25T10:36:07.529Z,21.56
2022-09-25T10:39:08.560Z,23.19
2022-09-25T10:41:51.616Z,24.06
2022-09-25T10:43:58.379Z,23.19
2022-09-25T10:46:05.094Z,23.32
2022-09-25T10:48:13.372Z,23.76
2022-09-25T10:50:27.522Z,24.37
2022-09-25T10:52:36.265Z,24.48
2022-09-25T10:54:45.426Z,24.9
2022-09-25T10:56:52.848Z,24.66
2022-09-25T10:58:59.086Z,25.19
2022-09-25T11:01:06.635Z,23.21
2022-09-25T11:03:17.235Z,22.17
2022-09-25T11:05:24.566Z,23.92
2022-09-25T11:07:31.224Z,24.63
2022-09-25T11:09:39.686Z,22.32
2022-09-25T11:11:48.398Z,22.66
2022-09-25T11:13:55.335Z,22.84
2022-09-25T11:16:02.218Z,24.81
2022-09-25T11:18:11.076Z,25.73
2022-09-25T11:20:19.348Z,26.26
2022-09-25T11:22:26.232Z,25.51
2022-09-25T11:24:33.540Z,23.68
2022-09-25T11:26:40.285Z,22.64
2022-09-25T11:28:48.693Z,24.28
2022-09-25T11:33:22.287Z,25.1
2022-09-25T11:35:34.366Z,24.92
2022-09-25T11:37:41.708Z,22.88
2022-09-25T11:39:48.527Z,23.05
2022-09-25T11:41:58.247Z,23.08
2022-09-25T11:44:04.984Z,24.49
2022-09-25T11:46:12.541Z,24.56
2022-09-25T11:50:47.368Z,22.07
2022-09-25T11:53:06.476Z,22.05
2022-09-25T11:55:12.992Z,20.98
2022-09-25T11:57:20.720Z,21.26
2022-09-25T11:59:27.022Z,21.65
2022-09-25T12:01:33.674Z,21.34
2022-09-25T12:03:40.583Z,22.28
2022-09-25T12:05:47.650Z,21.76
2022-09-25T13:06:38.342Z,18.37
2022-09-25T13:13:19.737Z,18.24
2022-09-25T13:16:04.887Z,18.06
2022-09-25T13:18:38.498Z,17.98
2022-09-25T13:24:06.271Z,17.35
2022-09-25T13:27:44.360Z,17.48
2022-09-25T13:29:51.480Z,17.59
2022-09-25T13:37:28.859Z,17.75
2022-09-25T13:39:42.669Z,17.91
2022-09-25T13:42:03.345Z,18.04
2022-09-25T13:44:14.313Z,18.19
2022-09-25T13:46:20.808Z,18.24
2022-09-25T13:48:30.556Z,17.99
2022-09-25T13:50:39.406Z,18.09
2022-09-25T13:52:59.182Z,17.93
2022-09-25T13:58:11.358Z,17.66
2022-09-25T14:00:17.926Z,17.7
2022-09-25T14:02:31.948Z,17.82
2022-09-25T14:04:42.858Z,17.79
2022-09-25T14:06:57.229Z,17.6
2022-09-25T14:09:08.300Z,17.75
2022-09-25T14:11:18.059Z,17.87
2022-09-25T14:13:26.379Z,17.84
2022-09-25T14:15:32.730Z,18.02
2022-09-25T14:17:38.741Z,18.1
2022-09-25T14:19:51.207Z,18.16
2022-09-25T14:21:59.155Z,17.86
2022-09-25T14:24:07.840Z,17.97
2022-09-25T14:26:14.559Z,17.86
2022-09-25T14:28:21.267Z,17.92
2022-09-25T14:30:30.659Z,17.96
2022-09-25T14:32:54.375Z,18.01
2022-09-25T14:35:05.271Z,18.04
2022-09-25T14:37:12.164Z,18.19
2022-09-25T14:39:18.842Z,18.13
2022-09-25T14:41:25.233Z,18.25
2022-09-25T14:50:12.492Z,17.9
2022-09-25T14:52:24.179Z,17.96
2022-09-25T14:54:32.348Z,17.68
2022-09-25T14:56:42.039Z,17.53
2022-09-25T14:58:49.055Z,17.27
2022-09-25T15:01:01.359Z,17.22
2022-09-25T15:10:04.425Z,16.49
2022-09-25T15:18:13.834Z,16.41
2022-09-25T15:20:24.712Z,16.28
2022-09-25T15:22:50.630Z,16.18
2022-09-25T15:25:05.216Z,16.13
2022-09-25T15:27:28.906Z,15.98
2022-09-25T15:29:35.805Z,15.93
2022-09-25T15:31:45.597Z,15.73
2022-09-25T15:36:23.348Z,15.49
2022-09-25T15:38:30.081Z,15.39
2022-09-25T15:40:40.028Z,15.31
2022-09-25T15:42:49.947Z,15.23
2022-09-25T15:44:59.750Z,15.14
2022-09-25T15:47:17.105Z,14.94
2022-09-25T15:49:25.471Z,14.86
2022-09-25T15:51:33.240Z,14.79
2022-09-25T15:53:41.983Z,14.71
2022-09-25T15:55:48.973Z,14.63
2022-09-25T15:57:55.433Z,14.54
2022-09-25T16:00:02.259Z,14.45
2022-09-25T16:02:12.633Z,14.36
2022-09-25T16:04:20.294Z,14.27
2022-09-25T16:06:27.400Z,14.18
2022-09-25T16:08:37.531Z,14.09
2022-09-25T16:10:50.040Z,13.99
2022-09-25T16:13:03.287Z,13.91
2022-09-25T16:15:16.077Z,13.83
2022-09-25T16:17:28.848Z,13.77
2022-09-25T16:19:40.418Z,13.67
2022-09-25T16:21:46.904Z,13.57
2022-09-25T16:23:56.077Z,13.49
2022-09-25T16:26:03.315Z,13.42
2022-09-25T16:28:10.416Z,13.34
2022-09-25T16:30:18.344Z,13.26
2022-09-25T16:32:24.770Z,13.19
2022-09-25T16:34:31.432Z,13.06
2022-09-25T16:36:41.647Z,12.96
2022-09-25T16:38:48.221Z,12.86
2022-09-25T16:40:55.318Z,12.75
2022-09-25T16:43:02.262Z,12.63
2022-09-25T16:45:09.906Z,12.54
2022-09-25T16:47:17.316Z,12.44
2022-09-25T16:49:23.857Z,12.36
2022-09-25T16:51:31.486Z,12.26
2022-09-25T16:53:39.351Z,12.16
2022-09-25T16:55:47.550Z,12.07
2022-09-25T16:57:53.857Z,12.01
2022-09-25T17:00:00.529Z,11.92
2022-09-25T17:02:08.376Z,11.82
2022-09-25T17:04:15.919Z,11.69
2022-09-25T17:06:23.671Z,11.6
2022-09-25T17:08:30.554Z,11.48
2022-09-25T17:10:37.614Z,11.38
2022-09-25T17:12:48.672Z,11.31
2022-09-25T17:15:00.393Z,11.22
2022-09-25T17:17:06.899Z,11.12
2022-09-25T17:19:14.065Z,11.05
2022-09-25T17:21:23.127Z,10.98
2022-09-25T17:23:29.925Z,10.94
2022-09-25T17:25:36.806Z,10.86
2022-09-25T17:27:44.462Z,10.76
2022-09-25T17:29:52.248Z,10.73
2022-09-25T17:32:02.149Z,10.7
2022-09-25T17:34:09.928Z,10.66
2022-09-25T17:36:18.388Z,10.64
2022-09-25T17:38:25.587Z,10.59
2022-09-25T17:40:33.682Z,10.56
2022-09-25T17:42:43.521Z,10.53
2022-09-25T17:44:53.996Z,10.54
2022-09-25T17:47:04.119Z,10.51
2022-09-25T17:49:10.826Z,10.41
2022-09-25T17:51:19.022Z,10.32
2022-09-25T17:53:28.712Z,10.24
2022-09-25T17:55:35.516Z,10.15
2022-09-25T17:57:45.307Z,10.07
2022-09-25T17:59:54.309Z,9.99
2022-09-25T18:02:01.725Z,9.93
2022-09-25T18:04:09.101Z,9.89
2022-09-25T18:06:16.775Z,9.86
2022-09-25T18:08:25.358Z,9.83
2022-09-25T18:10:32.025Z,9.79
2022-09-25T18:12:40.835Z,9.77
2022-09-25T18:14:52.202Z,9.73
2022-09-25T18:17:06.541Z,9.69
2022-09-25T18:19:15.357Z,9.69
2022-09-25T18:21:27.292Z,9.68
2022-09-25T18:23:35.592Z,9.64
2022-09-25T18:25:50.175Z,9.63
2022-09-25T18:28:00.972Z,9.56
2022-09-25T18:30:12.526Z,9.52
2022-09-25T18:32:23.350Z,9.46
2022-09-25T18:34:32.465Z,9.41
2022-09-25T18:36:43.846Z,9.4
2022-09-25T18:39:01.555Z,9.38
2022-09-25T18:41:09.259Z,9.33
2022-09-25T18:43:19.219Z,9.25
2022-09-25T18:45:26.356Z,9.16
2022-09-25T18:47:35.060Z,9.08
2022-09-25T18:49:42.599Z,8.99
2022-09-25T18:51:49.985Z,8.9
2022-09-25T18:54:07.315Z,8.8
2022-09-25T18:56:18.695Z,8.73
2022-09-25T18:58:30.687Z,8.71
2022-09-25T19:00:38.697Z,8.64
2022-09-25T19:02:46.302Z,8.59
2022-09-25T19:04:53.647Z,8.64
2022-09-25T19:07:04.782Z,8.79
2022-09-25T19:09:16.594Z,8.77
2022-09-25T19:11:26.703Z,8.73
2022-09-25T19:13:34.759Z,8.67
2022-09-25T19:15:42.910Z,8.61
2022-09-25T19:17:58.991Z,8.54
2022-09-25T19:20:11.533Z,8.49
2022-09-25T19:22:19.367Z,8.41
2022-09-25T19:24:29.395Z,8.35
2022-09-25T19:26:36.195Z,8.34
2022-09-25T19:28:47.587Z,8.3
2022-09-25T19:30:59.978Z,8.27
2022-09-25T19:33:10.696Z,8.24
2022-09-25T19:35:21.267Z,8.2
2022-09-25T19:37:33.058Z,8.14
2022-09-25T19:39:45.858Z,8.09
2022-09-25T19:41:58.590Z,8.03
2022-09-25T19:44:13.116Z,7.96
2022-09-25T19:46:20.528Z,7.98
2022-09-25T19:48:27.758Z,8.01
2022-09-25T19:50:34.870Z,8.03
2022-09-25T19:52:48.850Z,8.01
2022-09-25T19:54:57.909Z,8
2022-09-25T19:57:04.586Z,8.01
2022-09-25T19:59:16.836Z,8.03
2022-09-25T20:01:23.191Z,8.02
2022-09-25T20:03:31.404Z,7.97
2022-09-25T20:05:37.894Z,7.96
2022-09-25T20:07:49.773Z,7.96
2022-09-25T20:10:01.712Z,7.98
2022-09-25T20:12:09.977Z,7.99
2022-09-25T20:14:22.149Z,7.97
2022-09-25T20:16:29.242Z,7.91
2022-09-25T20:18:36.321Z,7.85
2022-09-25T20:20:44.393Z,7.77
2022-09-25T20:22:55.311Z,7.68
2022-09-25T20:25:02.891Z,7.6
2022-09-25T20:27:12.585Z,7.52
2022-09-25T20:29:32.082Z,7.47
2022-09-25T20:31:42.623Z,7.42
2022-09-25T20:33:48.693Z,7.36
2022-09-25T20:35:54.854Z,7.33
2022-09-25T20:38:00.887Z,7.28
2022-09-25T20:40:12.755Z,7.26
2022-09-25T20:42:20.639Z,7.22
2022-09-25T20:44:30.098Z,7.18
2022-09-25T20:46:38.204Z,7.15
2022-09-25T20:48:44.516Z,7.12
2022-09-25T20:50:52.603Z,7.13
2022-09-25T20:52:58.392Z,7.08
2022-09-25T20:55:04.212Z,7.04
2022-09-25T20:57:13.332Z,7
2022-09-25T20:59:19.541Z,6.96
2022-09-25T21:01:25.447Z,6.94
2022-09-25T21:03:31.638Z,6.89
2022-09-25T21:05:43.409Z,6.87
2022-09-25T21:07:53.610Z,6.84
2022-09-25T21:09:59.277Z,6.85
2022-09-25T21:12:09.806Z,6.84
2022-09-25T21:14:15.547Z,6.8
2022-09-25T21:16:21.489Z,6.78
2022-09-25T21:18:29.921Z,6.73
2022-09-25T21:20:38.580Z,6.7
2022-09-25T21:22:47.857Z,6.64
2022-09-25T21:24:57.106Z,6.63
2022-09-25T21:27:02.636Z,6.59
2022-09-25T21:29:14.416Z,6.55
2022-09-25T21:31:19.943Z,6.53
2022-09-25T21:33:25.791Z,6.49
2022-09-25T21:35:31.178Z,6.44
2022-09-25T21:37:36.773Z,6.43
2022-09-25T21:39:45.670Z,6.39
2022-09-25T21:41:54.249Z,6.35
2022-09-25T21:44:02.837Z,6.32
2022-09-25T21:46:08.381Z,6.33
2022-09-25T21:48:14.174Z,6.41
2022-09-25T21:50:22.688Z,6.42
2022-09-25T21:52:28.351Z,6.37
2022-09-25T21:54:33.987Z,6.31
2022-09-25T21:56:39.755Z,6.26
2022-09-25T21:58:47.648Z,6.21
2022-09-25T22:00:53.560Z,6.19
2022-09-25T22:03:08.576Z,6.14
2022-09-25T22:05:15.343Z,6.09
2022-09-25T22:07:34.355Z,6.05
2022-09-25T22:09:42.931Z,6.03
2022-09-25T22:11:51.372Z,6.01
2022-09-25T22:14:02.037Z,5.99
2022-09-25T22:16:14.857Z,5.96
2022-09-25T22:18:23.642Z,5.95
2022-09-25T22:20:31.206Z,5.94
2022-09-25T22:22:36.687Z,5.94
2022-09-25T22:24:45.499Z,5.95
2022-09-25T22:26:51.101Z,5.93
2022-09-25T22:28:56.636Z,5.88
2022-09-25T22:31:04.358Z,5.87
2022-09-25T22:33:10.445Z,5.84
2022-09-25T22:35:22.059Z,5.81
2022-09-25T22:37:30.698Z,5.78
2022-09-25T22:39:36.200Z,5.76
2022-09-25T22:41:41.475Z,5.74
2022-09-25T22:43:46.613Z,5.73
2022-09-25T22:45:55.037Z,5.71
2022-09-25T22:48:03.367Z,5.71
2022-09-25T22:50:08.772Z,5.71
2022-09-25T22:52:21.837Z,5.69
2022-09-25T22:54:30.193Z,5.68
2022-09-25T22:56:35.716Z,5.67
2022-09-25T22:58:43.674Z,5.67
2022-09-25T23:00:49.407Z,5.65
2022-09-25T23:02:55.057Z,5.63
2022-09-25T23:05:06.468Z,5.64
2022-09-25T23:07:13.047Z,5.65
2022-09-25T23:09:18.790Z,5.65
2022-09-25T23:11:29.132Z,5.64
2022-09-25T23:13:38.567Z,5.62
2022-09-25T23:15:43.760Z,5.6
2022-09-25T23:17:49.709Z,5.57
2022-09-25T23:19:55.307Z,5.56
2022-09-25T23:22:03.544Z,5.53
2022-09-25T23:24:13.417Z,5.5
2022-09-25T23:26:33.757Z,5.46
2022-09-25T23:28:39.089Z,5.43
2022-09-25T23:30:44.552Z,5.39
2022-09-25T23:32:50.538Z,5.37
2022-09-25T23:34:59.824Z,5.34
2022-09-25T23:37:06.648Z,5.33
2022-09-25T23:39:13.809Z,5.32
2022-09-25T23:41:19.788Z,5.29
2022-09-25T23:43:25.260Z,5.25
2022-09-25T23:45:32.704Z,5.22
2022-09-25T23:47:38.380Z,5.19
2022-09-25T23:49:44.088Z,5.18
2022-09-25T23:51:49.675Z,5.15
2022-09-25T23:53:55.134Z,5.14
2022-09-25T23:56:00.955Z,5.12
2022-09-25T23:58:06.500Z,5.13
